createdAt,value
2023-03-11T00:01:53.965Z,12.55
2023-03-11T00:04:21.536Z,12.48
2023-03-11T00:06:48.814Z,12.46
2023-03-11T00:09:16.151Z,12.46
2023-03-11T00:11:43.813Z,12.34
2023-03-11T00:14:11.127Z,12.31
2023-03-11T00:16:38.480Z,12.25
2023-03-11T00:19:05.820Z,12.22
2023-03-11T00:21:33.538Z,12.13
2023-03-11T00:24:03.703Z,12.16
2023-03-11T00:26:31.437Z,12.19
2023-03-11T00:28:58.766Z,12.17
2023-03-11T00:31:26.660Z,12.22
2023-03-11T00:33:57.156Z,12.26
2023-03-11T00:36:31.697Z,12.32
2023-03-11T00:39:02.003Z,12.34
2023-03-11T00:41:29.453Z,12.37
2023-03-11T00:43:56.682Z,12.32
2023-03-11T00:46:24.129Z,12.32
2023-03-11T00:48:52.110Z,12.39
2023-03-11T00:51:20.152Z,12.36
2023-03-11T00:53:47.643Z,12.42
2023-03-11T00:56:16.383Z,12.45
2023-03-11T00:58:45.890Z,12.50
2023-03-11T01:01:19.829Z,12.53
2023-03-11T01:03:47.871Z,12.39
2023-03-11T01:06:15.703Z,12.35
2023-03-11T01:08:43.061Z,12.35
2023-03-11T01:11:10.981Z,12.32
2023-03-11T01:13:40.349Z,12.22
2023-03-11T01:16:09.352Z,12.21
2023-03-11T01:18:36.706Z,12.25
2023-03-11T01:21:04.341Z,12.32
2023-03-11T01:23:32.930Z,12.27
2023-03-11T01:26:00.236Z,12.19
2023-03-11T01:28:27.947Z,12.17
2023-03-11T01:30:55.732Z,12.14
2023-03-11T01:33:23.551Z,12.13
2023-03-11T01:35:50.875Z,12.09
2023-03-11T01:38:18.797Z,12.04
2023-03-11T01:40:49.675Z,12.03
2023-03-11T01:43:42.997Z,11.95
2023-03-11T01:46:17.324Z,11.99
2023-03-11T01:48:56.973Z,11.98
2023-03-11T01:51:48.712Z,11.93
2023-03-11T01:54:24.108Z,11.94
2023-03-11T01:56:53.567Z,11.88
2023-03-11T01:59:53.614Z,12.02
2023-03-11T02:02:32.034Z,11.84
2023-03-11T02:05:02.277Z,11.81
2023-03-11T02:07:30.290Z,11.64
2023-03-11T02:09:58.013Z,11.67
2023-03-11T02:12:25.609Z,11.63
2023-03-11T02:14:54.640Z,11.54
2023-03-11T02:17:22.400Z,11.50
2023-03-11T02:20:04.338Z,11.49
2023-03-11T02:22:33.617Z,11.55
2023-03-11T02:25:10.674Z,11.51
2023-03-11T02:27:41.428Z,11.45
2023-03-11T02:30:13.223Z,11.45
2023-03-11T02:32:44.300Z,11.48
2023-03-11T02:35:12.388Z,11.32
2023-03-11T02:37:45.427Z,11.32
2023-03-11T02:40:27.196Z,11.35
2023-03-11T02:42:59.748Z,11.33
2023-03-11T02:45:29.964Z,11.28
2023-03-11T02:47:59.790Z,11.26
2023-03-11T02:50:30.590Z,11.32
2023-03-11T02:52:58.313Z,11.28
2023-03-11T02:55:25.572Z,11.43
2023-03-11T02:57:52.947Z,11.30
2023-03-11T03:00:21.153Z,11.28
2023-03-11T03:02:57.787Z,11.29
2023-03-11T03:05:26.598Z,11.20
2023-03-11T03:07:54.013Z,11.26
2023-03-11T03:10:22.684Z,11.18
2023-03-11T03:12:51.275Z,11.27
2023-03-11T03:15:19.124Z,11.25
2023-03-11T03:17:46.933Z,11.35
2023-03-11T03:20:14.826Z,11.33
2023-03-11T03:22:47.717Z,11.35
2023-03-11T03:25:18.559Z,11.34
2023-03-11T03:27:46.988Z,11.34
2023-03-11T03:30:15.568Z,11.38
2023-03-11T03:32:43.632Z,11.34
2023-03-11T03:35:13.862Z,11.36
2023-03-11T03:38:13.833Z,11.38
2023-03-11T03:40:47.499Z,11.38
2023-03-11T03:43:17.769Z,11.44
2023-03-11T03:45:55.128Z,11.36
2023-03-11T03:48:23.267Z,11.32
2023-03-11T03:50:50.930Z,11.27
2023-03-11T03:53:19.780Z,11.31
2023-03-11T03:55:49.810Z,11.27
2023-03-11T03:58:17.932Z,11.34
2023-03-11T04:00:45.710Z,11.35
2023-03-11T04:03:13.342Z,11.34
2023-03-11T04:05:50.657Z,11.42
2023-03-11T04:08:18.380Z,11.28
2023-03-11T04:10:57.268Z,11.25
2023-03-11T04:13:24.920Z,11.23
2023-03-11T04:15:52.198Z,11.22
2023-03-11T04:18:22.763Z,11.18
2023-03-11T04:20:50.692Z,11.16
2023-03-11T04:23:17.996Z,11.11
2023-03-11T04:25:45.355Z,10.99
2023-03-11T04:28:13.405Z,10.94
2023-03-11T04:30:41.509Z,10.91
2023-03-11T04:33:08.913Z,10.99
2023-03-11T04:35:38.905Z,10.96
2023-03-11T04:38:07.736Z,10.91
2023-03-11T04:40:37.569Z,10.91
2023-03-11T04:43:05.440Z,10.86
2023-03-11T04:45:33.629Z,10.91
2023-03-11T04:48:03.409Z,10.90
2023-03-11T04:50:32.310Z,10.98
2023-03-11T04:53:00.054Z,10.91
2023-03-11T04:55:27.707Z,10.99
2023-03-11T04:57:55.090Z,11.12
2023-03-11T05:00:24.949Z,11.09
2023-03-11T05:03:00.676Z,10.95
2023-03-11T05:05:28.822Z,10.84
2023-03-11T05:07:56.589Z,10.92
2023-03-11T05:10:24.350Z,10.90
2023-03-11T05:12:55.756Z,10.97
2023-03-11T05:15:26.854Z,10.89
2023-03-11T05:17:54.353Z,10.95
2023-03-11T05:20:22.046Z,10.90
2023-03-11T05:22:49.539Z,10.85
2023-03-11T05:25:17.263Z,10.73
2023-03-11T05:27:45.329Z,10.67
2023-03-11T05:30:15.366Z,10.71
2023-03-11T05:32:44.753Z,10.59
2023-03-11T05:35:12.908Z,10.53
2023-03-11T05:37:41.142Z,10.51
2023-03-11T05:40:12.167Z,10.42
2023-03-11T05:42:41.291Z,10.54
2023-03-11T05:45:10.644Z,10.47
2023-03-11T05:47:42.167Z,10.50
2023-03-11T05:50:12.804Z,10.55
2023-03-11T05:52:41.913Z,10.72
2023-03-11T05:55:11.457Z,10.83
2023-03-11T05:57:40.763Z,11.07
2023-03-11T06:00:12.720Z,11.09
2023-03-11T06:02:47.619Z,11.08
2023-03-11T06:05:17.902Z,11.15
2023-03-11T06:07:47.294Z,11.14
2023-03-11T06:10:15.181Z,11.14
2023-03-11T06:12:43.238Z,11.12
2023-03-11T06:15:29.453Z,11.02
2023-03-11T06:17:56.834Z,11.00
2023-03-11T06:20:24.839Z,11.03
2023-03-11T06:22:52.764Z,11.00
2023-03-11T06:25:23.661Z,11.02
2023-03-11T06:27:53.359Z,11.09
2023-03-11T06:30:22.001Z,11.23
2023-03-11T06:32:57.254Z,11.35
2023-03-11T06:35:24.842Z,11.44
2023-03-11T06:37:52.666Z,11.60
2023-03-11T06:40:20.348Z,11.66
2023-03-11T06:42:47.853Z,11.76
2023-03-11T06:45:15.547Z,11.82
2023-03-11T06:47:44.498Z,11.93
2023-03-11T06:50:12.202Z,11.99
2023-03-11T06:52:40.158Z,12.12
2023-03-11T06:55:09.210Z,12.26
2023-03-11T06:57:37.452Z,12.32
2023-03-11T07:00:12.261Z,12.44
2023-03-11T07:02:41.478Z,12.46
2023-03-11T07:05:10.316Z,12.54
2023-03-11T07:07:38.182Z,12.71
2023-03-11T07:10:06.498Z,12.85
2023-03-11T07:12:33.826Z,12.98
2023-03-11T07:15:04.329Z,13.05
2023-03-11T07:17:34.018Z,13.09
2023-03-11T07:20:03.277Z,13.22
2023-03-11T07:22:30.664Z,13.14
2023-03-11T07:24:57.996Z,13.13
2023-03-11T07:27:28.078Z,13.27
2023-03-11T07:29:55.383Z,13.36
2023-03-11T07:32:22.746Z,13.35
2023-03-11T07:34:50.038Z,13.50
2023-03-11T07:37:17.785Z,13.67
2023-03-11T07:39:45.289Z,13.75
2023-03-11T07:42:12.614Z,13.98
2023-03-11T07:44:40.429Z,14.05
2023-03-11T07:47:07.705Z,14.23
2023-03-11T07:49:38.062Z,14.38
2023-03-11T07:52:05.699Z,14.49
2023-03-11T07:54:32.939Z,14.63
2023-03-11T07:57:01.204Z,14.69
2023-03-11T07:59:29.102Z,14.85
2023-03-11T08:01:57.158Z,14.89
2023-03-11T08:04:24.610Z,15.03
2023-03-11T08:06:52.379Z,15.22
2023-03-11T08:09:19.655Z,15.32
2023-03-11T08:11:49.478Z,15.47
2023-03-11T08:14:17.178Z,15.59
2023-03-11T08:16:44.453Z,15.55
2023-03-11T08:19:13.462Z,15.72
2023-03-11T08:21:41.343Z,15.63
2023-03-11T08:24:12.504Z,15.55
2023-03-11T08:26:40.953Z,15.60
2023-03-11T08:29:08.560Z,15.66
2023-03-11T08:31:36.051Z,15.72
2023-03-11T08:34:09.464Z,15.66
2023-03-11T08:36:36.805Z,15.54
2023-03-11T08:39:04.301Z,15.59
2023-03-11T08:41:31.674Z,15.61
2023-03-11T08:43:59.284Z,15.80
2023-03-11T08:46:31.965Z,15.82
2023-03-11T08:49:01.473Z,16.05
2023-03-11T08:51:31.951Z,16.04
2023-03-11T08:54:00.402Z,16.06
2023-03-11T08:56:28.584Z,16.05
2023-03-11T08:58:55.866Z,16.27
2023-03-11T09:01:24.049Z,16.24
2023-03-11T09:03:52.626Z,16.21
2023-03-11T09:06:22.176Z,16.19
2023-03-11T09:08:50.153Z,16.10
2023-03-11T09:11:18.771Z,16.15
2023-03-11T09:13:46.030Z,16.21
2023-03-11T09:16:20.445Z,16.08
2023-03-11T09:18:48.335Z,16.26
2023-03-11T09:21:15.828Z,16.32
2023-03-11T09:23:44.537Z,16.40
2023-03-11T09:26:12.520Z,16.51
2023-03-11T09:28:41.455Z,16.55
2023-03-11T09:31:09.611Z,16.65
2023-03-11T09:33:39.159Z,16.74
2023-03-11T09:36:07.574Z,17.09
2023-03-11T09:38:34.878Z,17.18
2023-03-11T09:41:13.337Z,17.17
2023-03-11T09:44:08.639Z,17.23
2023-03-11T09:47:06.667Z,17.20
2023-03-11T09:50:40.406Z,17.38
2023-03-11T09:53:23.817Z,17.43
2023-03-11T09:56:01.431Z,17.57
2023-03-11T09:58:39.424Z,17.38
2023-03-11T10:01:16.341Z,17.71
2023-03-11T10:03:45.096Z,17.53
2023-03-11T10:06:14.808Z,17.67
2023-03-11T10:09:13.404Z,18.07
2023-03-11T10:11:51.267Z,18.05
2023-03-11T10:14:33.526Z,18.00
2023-03-11T10:17:14.586Z,18.13
2023-03-11T10:19:55.301Z,18.33
2023-03-11T10:22:34.414Z,18.13
2023-03-11T10:25:15.022Z,17.99
2023-03-11T10:27:48.254Z,18.03
2023-03-11T10:30:36.948Z,18.21
2023-03-11T10:33:27.381Z,18.26
2023-03-11T10:35:58.686Z,18.28
2023-03-11T10:38:32.304Z,18.15
2023-03-11T10:41:11.363Z,18.17
2023-03-11T10:43:47.465Z,18.27
2023-03-11T10:46:20.693Z,18.29
2023-03-11T10:48:47.991Z,18.36
2023-03-11T10:51:22.730Z,18.24
2023-03-11T10:53:55.979Z,18.28
2023-03-11T10:56:32.819Z,18.22
2023-03-11T10:59:01.555Z,18.54
2023-03-11T11:01:30.009Z,18.49
2023-03-11T11:04:00.818Z,18.43
2023-03-11T11:06:33.774Z,18.42
2023-03-11T11:09:22.427Z,18.48
2023-03-11T11:12:11.952Z,18.68
2023-03-11T11:14:50.710Z,18.84
2023-03-11T11:17:29.129Z,18.86
2023-03-11T11:19:59.074Z,18.99
2023-03-11T11:22:28.175Z,19.16
2023-03-11T11:24:56.626Z,19.24
2023-03-11T11:27:26.346Z,19.13
2023-03-11T11:30:08.980Z,19.31
2023-03-11T11:32:37.266Z,19.19
2023-03-11T11:35:07.833Z,19.54
2023-03-11T11:37:38.802Z,19.36
2023-03-11T11:40:15.799Z,19.58
2023-03-11T11:42:54.102Z,19.44
2023-03-11T11:45:34.421Z,19.66
2023-03-11T11:48:12.492Z,19.82
2023-03-11T11:50:52.151Z,19.89
2023-03-11T11:53:28.681Z,19.87
2023-03-11T11:55:56.805Z,20.15
2023-03-11T11:58:24.338Z,20.07
2023-03-11T12:01:04.176Z,20.06
2023-03-11T12:03:52.965Z,20.11
2023-03-11T12:06:28.140Z,20.33
2023-03-11T12:09:24.411Z,20.23
2023-03-11T12:12:13.280Z,20.41
2023-03-11T12:14:54.718Z,20.77
2023-03-11T12:17:26.041Z,20.66
2023-03-11T12:19:59.679Z,20.89
2023-03-11T12:22:36.538Z,20.61
2023-03-11T12:25:22.255Z,20.50
2023-03-11T12:28:16.770Z,20.57
2023-03-11T12:31:03.400Z,20.90
2023-03-11T12:33:39.907Z,20.64
2023-03-11T12:36:20.522Z,20.73
2023-03-11T12:38:49.410Z,20.99
2023-03-11T12:41:42.888Z,21.01
2023-03-11T12:44:40.143Z,20.83
2023-03-11T12:47:08.043Z,21.03
2023-03-11T12:49:41.672Z,20.84
2023-03-11T12:52:13.251Z,20.92
2023-03-11T12:54:40.800Z,21.00
2023-03-11T12:57:17.224Z,21.00
2023-03-11T12:59:56.898Z,21.26
2023-03-11T13:02:36.881Z,21.54
2023-03-11T13:05:51.303Z,21.69
2023-03-11T13:08:24.238Z,21.46
2023-03-11T13:10:53.858Z,21.60
2023-03-11T13:13:30.931Z,21.50
2023-03-11T13:16:10.961Z,21.73
2023-03-11T13:18:39.709Z,21.46
2023-03-11T13:21:28.659Z,21.66
2023-03-11T13:24:26.051Z,21.81
2023-03-11T13:27:04.910Z,21.82
2023-03-11T13:29:55.634Z,22.05
2023-03-11T13:32:27.142Z,21.88
2023-03-11T13:35:16.423Z,21.92
2023-03-11T13:38:13.204Z,22.01
2023-03-11T13:40:45.165Z,21.93
2023-03-11T13:43:25.496Z,22.14
2023-03-11T13:46:05.879Z,21.89
2023-03-11T13:48:42.080Z,22.68
2023-03-11T13:51:21.758Z,22.42
2023-03-11T13:53:59.646Z,22.68
2023-03-11T13:56:29.484Z,22.67
2023-03-11T13:59:16.098Z,22.45
2023-03-11T14:01:51.593Z,22.48
2023-03-11T14:04:27.112Z,23.64
2023-03-11T14:06:54.936Z,27.72
2023-03-11T14:09:24.327Z,30.09
2023-03-11T14:11:54.607Z,29.01
2023-03-11T14:14:40.165Z,31.16
2023-03-11T14:17:15.820Z,31.09
2023-03-11T14:19:43.945Z,31.76
2023-03-11T14:22:11.295Z,31.82
2023-03-11T14:24:39.837Z,30.03
2023-03-11T14:27:10.281Z,29.93
2023-03-11T14:29:40.129Z,30.52
2023-03-11T14:32:26.525Z,29.78
2023-03-11T14:34:54.454Z,29.24
2023-03-11T14:37:38.341Z,31.44
2023-03-11T14:40:31.004Z,34.36
2023-03-11T14:43:03.828Z,32.18
2023-03-11T14:45:33.908Z,31.55
2023-03-11T14:48:01.399Z,29.32
2023-03-11T14:50:35.199Z,30.12
2023-03-11T14:53:08.810Z,29.99
2023-03-11T14:55:56.449Z,31.01
2023-03-11T14:58:37.649Z,29.75
2023-03-11T15:01:09.422Z,30.04
2023-03-11T15:03:50.388Z,30.43
2023-03-11T15:06:19.673Z,35.25
2023-03-11T15:08:55.313Z,33.65
2023-03-11T15:11:28.354Z,31.51
2023-03-11T15:14:16.935Z,32.81
2023-03-11T15:16:44.706Z,31.45
2023-03-11T15:19:21.500Z,30.66
2023-03-11T15:21:50.936Z,32.17
2023-03-11T15:24:22.142Z,32.27
2023-03-11T15:27:30.931Z,31.00
2023-03-11T15:30:00.642Z,32.99
2023-03-11T15:32:42.850Z,29.45
2023-03-11T15:35:13.255Z,29.04
2023-03-11T15:37:42.410Z,30.76
2023-03-11T15:40:26.150Z,30.33
2023-03-11T15:43:15.888Z,29.79
2023-03-11T15:45:44.410Z,29.10
2023-03-11T15:48:13.931Z,28.69
2023-03-11T15:50:58.659Z,29.64
2023-03-11T15:53:28.166Z,29.01
2023-03-11T15:56:07.389Z,30.75
2023-03-11T15:58:38.271Z,29.77
2023-03-11T16:01:06.237Z,29.84
2023-03-11T16:03:34.055Z,29.18
2023-03-11T16:06:01.335Z,28.29
2023-03-11T16:08:29.014Z,29.42
2023-03-11T16:10:58.119Z,29.87
2023-03-11T16:13:25.577Z,28.01
2023-03-11T16:15:53.388Z,28.70
2023-03-11T16:18:20.726Z,28.67
2023-03-11T16:20:51.733Z,28.30
2023-03-11T16:23:23.743Z,27.47
2023-03-11T16:25:56.266Z,25.84
2023-03-11T16:28:23.600Z,25.22
2023-03-11T16:30:51.263Z,26.67
2023-03-11T16:33:18.868Z,27.13
2023-03-11T16:35:46.427Z,24.02
2023-03-11T16:38:14.174Z,22.92
2023-03-11T16:40:41.698Z,21.99
2023-03-11T16:43:11.326Z,21.74
2023-03-11T16:45:38.569Z,21.38
2023-03-11T16:48:07.149Z,21.18
2023-03-11T16:50:36.975Z,21.01
2023-03-11T16:53:05.426Z,20.96
2023-03-11T16:57:59.722Z,20.40
2023-03-11T17:00:27.115Z,20.40
2023-03-11T17:02:54.524Z,20.23
2023-03-11T17:05:21.888Z,20.13
2023-03-11T17:07:53.403Z,20.16
2023-03-11T17:10:23.770Z,19.95
2023-03-11T17:12:51.472Z,19.77
2023-03-11T17:15:19.317Z,19.67
2023-03-11T17:17:47.294Z,19.57
2023-03-11T17:20:14.561Z,19.47
2023-03-11T17:22:41.826Z,19.37
2023-03-11T17:25:09.793Z,19.39
2023-03-11T17:27:37.612Z,19.41
2023-03-11T17:30:06.422Z,19.24
2023-03-11T17:32:33.800Z,19.20
2023-03-11T17:35:01.417Z,19.08
2023-03-11T17:37:29.250Z,19.07
2023-03-11T17:39:56.953Z,19.09
2023-03-11T17:42:24.864Z,18.97
2023-03-11T17:44:56.283Z,18.89
2023-03-11T17:47:27.536Z,18.89
2023-03-11T17:49:55.325Z,18.83
2023-03-11T17:52:23.164Z,18.87
2023-03-11T17:54:50.595Z,18.83
2023-03-11T17:57:17.887Z,18.61
2023-03-11T17:59:45.768Z,18.59
2023-03-11T18:02:14.184Z,18.49
2023-03-11T18:04:45.805Z,18.42
2023-03-11T18:07:13.148Z,18.26
2023-03-11T18:09:40.596Z,18.16
2023-03-11T18:12:09.013Z,18.15
2023-03-11T18:14:36.737Z,18.00
2023-03-11T18:17:04.646Z,18.08
2023-03-11T18:19:32.076Z,18.03
2023-03-11T18:21:59.873Z,17.88
2023-03-11T18:24:27.150Z,17.91
2023-03-11T18:26:54.975Z,17.77
2023-03-11T18:29:24.329Z,17.64
2023-03-11T18:31:52.212Z,17.57
2023-03-11T18:34:20.077Z,17.57
2023-03-11T18:36:49.103Z,17.50
2023-03-11T18:39:16.891Z,17.49
2023-03-11T18:41:44.216Z,17.51
2023-03-11T18:44:11.671Z,17.27
2023-03-11T18:46:39.128Z,17.30
2023-03-11T18:49:06.452Z,17.23
2023-03-11T18:51:34.483Z,17.23
2023-03-11T18:54:02.600Z,17.15
2023-03-11T18:56:33.215Z,17.12
2023-03-11T18:59:01.420Z,17.06
2023-03-11T19:01:28.951Z,16.99
2023-03-11T19:03:58.799Z,16.94
2023-03-11T19:06:28.358Z,17.00
2023-03-11T19:08:57.785Z,16.96
2023-03-11T19:11:25.763Z,16.92
2023-03-11T19:13:55.619Z,16.86
2023-03-11T19:16:26.271Z,16.83
2023-03-11T19:18:55.209Z,16.70
2023-03-11T19:21:23.279Z,16.68
2023-03-11T19:23:52.848Z,16.55
2023-03-11T19:26:21.046Z,16.54
2023-03-11T19:28:51.105Z,16.52
2023-03-11T19:31:18.469Z,16.46
2023-03-11T19:33:47.020Z,16.42
2023-03-11T19:36:15.071Z,16.45
2023-03-11T19:38:43.005Z,16.42
2023-03-11T19:41:18.410Z,16.27
2023-03-11T19:43:47.179Z,16.20
2023-03-11T19:46:20.462Z,16.15
2023-03-11T19:48:48.729Z,16.13
2023-03-11T19:51:17.279Z,16.15
2023-03-11T19:53:45.436Z,16.13
2023-03-11T19:56:13.054Z,16.13
2023-03-11T19:58:42.673Z,16.10
2023-03-11T20:01:21.024Z,15.97
2023-03-11T20:03:48.385Z,16.02
2023-03-11T20:06:18.374Z,15.88
2023-03-11T20:08:46.473Z,15.81
2023-03-11T20:11:13.753Z,15.77
2023-03-11T20:13:43.969Z,15.71
2023-03-11T20:16:16.062Z,15.60
2023-03-11T20:18:45.947Z,15.55
2023-03-11T20:21:14.255Z,15.56
2023-03-11T20:23:41.597Z,15.59
2023-03-11T20:26:19.104Z,15.56
2023-03-11T20:28:47.084Z,15.50
2023-03-11T20:31:20.286Z,15.53
2023-03-11T20:33:49.200Z,15.42
2023-03-11T20:36:22.625Z,15.44
2023-03-11T20:38:54.585Z,15.43
2023-03-11T20:41:24.430Z,15.59
2023-03-11T20:43:53.843Z,15.75
2023-03-11T20:46:21.806Z,15.69
2023-03-11T20:48:49.226Z,15.77
2023-03-11T20:51:20.280Z,15.37
2023-03-11T20:53:48.144Z,15.39
2023-03-11T20:56:24.234Z,15.38
2023-03-11T20:58:55.756Z,15.43
2023-03-11T21:01:27.321Z,15.25
2023-03-11T21:03:56.969Z,15.28
2023-03-11T21:06:29.904Z,15.00
2023-03-11T21:09:00.223Z,14.97
2023-03-11T21:11:28.335Z,15.09
2023-03-11T21:13:56.028Z,15.00
2023-03-11T21:16:23.880Z,14.79
2023-03-11T21:18:52.019Z,14.77
2023-03-11T21:21:20.261Z,14.63
2023-03-11T21:23:49.137Z,14.62
2023-03-11T21:26:17.608Z,14.61
2023-03-11T21:28:46.666Z,14.57
2023-03-11T21:31:18.053Z,14.45
2023-03-11T21:33:46.467Z,14.48
2023-03-11T21:36:16.026Z,14.66
2023-03-11T21:38:44.415Z,14.59
2023-03-11T21:41:26.349Z,14.46
2023-03-11T21:43:55.445Z,14.24
2023-03-11T21:46:25.478Z,14.34
2023-03-11T21:48:53.438Z,14.30
2023-03-11T21:51:22.111Z,14.26
2023-03-11T21:53:49.886Z,14.35
2023-03-11T21:56:17.938Z,14.36
2023-03-11T21:58:46.009Z,14.22
2023-03-11T22:01:14.193Z,14.09
2023-03-11T22:03:42.331Z,14.14
2023-03-11T22:06:12.728Z,14.22
2023-03-11T22:08:41.058Z,14.00
2023-03-11T22:11:10.579Z,14.13
2023-03-11T22:13:38.190Z,14.16
2023-03-11T22:16:06.854Z,14.10
2023-03-11T22:18:35.014Z,14.01
2023-03-11T22:21:02.487Z,13.96
2023-03-11T22:23:30.304Z,14.02
2023-03-11T22:25:58.154Z,13.92
2023-03-11T22:28:25.992Z,13.95
2023-03-11T22:30:54.595Z,13.72
2023-03-11T22:33:21.932Z,13.86
2023-03-11T22:35:57.377Z,13.73
2023-03-11T22:38:24.988Z,13.59
2023-03-11T22:40:52.287Z,13.76
2023-03-11T22:43:19.875Z,13.66
2023-03-11T22:45:47.640Z,13.48
2023-03-11T22:48:15.255Z,13.25
2023-03-11T22:50:44.473Z,13.49
2023-03-11T22:53:12.915Z,13.60
2023-03-11T22:55:41.797Z,13.42
2023-03-11T22:58:09.221Z,13.44
2023-03-11T23:00:37.031Z,13.29
2023-03-11T23:03:04.492Z,13.00
2023-03-11T23:05:32.452Z,13.01
2023-03-11T23:07:59.758Z,12.74
2023-03-11T23:10:27.517Z,12.67
2023-03-11T23:12:54.881Z,12.57
2023-03-11T23:15:22.279Z,12.58
2023-03-11T23:17:50.127Z,12.53
2023-03-11T23:20:17.747Z,12.69
2023-03-11T23:22:45.515Z,12.68
2023-03-11T23:25:16.504Z,12.49
2023-03-11T23:27:45.351Z,12.42
2023-03-11T23:30:16.494Z,12.34
2023-03-11T23:32:44.655Z,12.41
2023-03-11T23:35:12.690Z,12.33
2023-03-11T23:37:39.988Z,12.32
2023-03-11T23:40:09.462Z,12.15
2023-03-11T23:42:36.710Z,12.02
2023-03-11T23:45:05.159Z,12.17
2023-03-11T23:47:32.965Z,12.18
2023-03-11T23:50:00.271Z,11.95
2023-03-11T23:52:27.597Z,12.09
2023-03-11T23:54:55.705Z,11.99
2023-03-11T23:57:23.469Z,12.04
2023-03-11T23:59:51.949Z,12.14
